Hauptseite
METAR-TAF:

METAR-TAF

Flughäfen :

Luxeuil-les-Bains, Frankreich

Militärflugplatz Luxeuil-Saint Sauveur

Breite: 47-47N, Länge: 006-21E, Höhe: 278 m

Beobachtung

Neuester Wetterbericht von vor 27 Minuten, um 09:30 UTC
Wind 3 kt aus Süd/Südwest, variierte zwischen Süd/Südost und West
Temperatur 22°C
Luftfeuchtigkeit 41%
Luftdruck 1027 hPa
Sichtweite 10 km oder mehr

METAR: LFSX 190930Z AUTO 20003KT 150V270 9999 NCD 22/08 Q1027 NOSIG

Zeit: 11:57 (09:57 UTC)

Prognose

Neuester Wetterbericht von vor 1 Stunde und 57 Minuten, um 08:00 UTC
Gültige Prognose vom 19 um 09 UTC bis 20 um 09 UTC
Wind 9 kt aus Süd
Sichtweite 10 km oder mehr
keine Wolken unter 1500 m und keine Kumulonimbus oder Gewitterwolken

TAF: LFSX 190800Z 1909/2009 19009KT CAVOK

Wetterbeobachtungen und Prognosen von mehr als 4000 Flughäfen (METAR und TAF Bericht).

Die verfügbaren Stationen werden durch gelbe und rote Markierungen auf der Karte dargestellt.

Führen Sie die Maus auf sie, um den Namen der Station zu sehen.

Darauf klicken, um die Beobachtung von Wetterbeobachtungen und Prognosen zu sehen.

Um die Karte zu ändern : klicken Sie auf den grünen Tasten mit einem schwarzen Kreuz Zum Vergrößern, auf den grünen Button mit einem Gedankenstrich zu verkleinern, oder auf die grünen Pfeile für benachbarte Karten.


METAR-TAF: